EVA87 RCTP-LFPG
Flight info
| Callsign | EVA87 |
|---|---|
| Flight time | N/A |
| Altitude | 30000 |
| Route | CHALI1C CHALI T3 MKG A1 KADLO T1 KAPLI DCT ALLEY V10 SIKOU/K0950S0920 R339 UVUNO/K0943S0980 R339 BSE A599 LINSO/N0510F320 A599 LSO A201 LKN/N0503F340 M890 SULOM A466 JHANG M875 DI N644 LEMOD A909 KEKAL/N0487F360 A909 RODAR N644 ADEKI DCT BADIR DCT LAGAS DCT NOLGA UG261 TBN UM11 CRM UL746 ODERO DCT OPT DCT PEXAL DCT ENIMA/N0480F380 DCT TEGRI DCT ARSIN DCT TAGAS DCT RENKA DCT MAMOR DCT ASPAT DCT VIBOM DCT BETEX DCT IDOSA DCT TOLVU DCT RAPOR DCT VEDUS VEDUS9E |
| Aircraft | B77W/H-SDE1E2E3FGHIJ2J3J4J5M1RWXY/LB1D1 |
Departure
| Time | N/A |
|---|---|
| Airport | Taiwan Taoyuan International Airport (RCTP) |
Arrival
| Time | 2026-05-04 08:06 |
|---|---|
| Airport | Charles de Gaulle International Airport (LFPG) |
| Time | Latitude | Longitude | Altitude | Speed | Heading |
|---|---|---|---|---|---|
| 2026-05-04 07:22 | 49.67913 | 7.55921 | 38009 ft | 446 kts | 277° |
| 2026-05-04 07:22 | 49.68503 | 7.51221 | 38004 ft | 446 kts | 277° |
| 2026-05-04 07:23 | 49.69678 | 7.41823 | 38014 ft | 446 kts | 277° |
| 2026-05-04 07:23 | 49.70845 | 7.32406 | 38015 ft | 446 kts | 277° |
| 2026-05-04 07:24 | 49.72000 | 7.23036 | 38016 ft | 446 kts | 277° |
| 2026-05-04 07:24 | 49.73155 | 7.13592 | 38010 ft | 447 kts | 277° |
| 2026-05-04 07:26 | 49.77705 | 6.75710 | 37987 ft | 449 kts | 276° |
| 2026-05-04 07:27 | 49.78821 | 6.66251 | 37985 ft | 449 kts | 276° |
| 2026-05-04 07:27 | 49.79938 | 6.56725 | 37986 ft | 450 kts | 276° |
| 2026-05-04 07:28 | 49.80950 | 6.47186 | 37984 ft | 447 kts | 271° |
| 2026-05-04 07:28 | 49.80866 | 6.37612 | 37998 ft | 442 kts | 261° |
| 2026-05-04 07:29 | 49.79775 | 6.28292 | 37994 ft | 440 kts | 255° |
| 2026-05-04 07:29 | 49.78500 | 6.19095 | 37994 ft | 440 kts | 255° |
| 2026-05-04 07:30 | 49.77242 | 6.09819 | 37996 ft | 441 kts | 255° |
| 2026-05-04 07:30 | 49.75997 | 6.00525 | 37996 ft | 441 kts | 255° |
| 2026-05-04 07:31 | 49.74746 | 5.91233 | 38011 ft | 441 kts | 255° |
| 2026-05-04 07:33 | 49.66844 | 5.55530 | 37701 ft | 444 kts | 248° |
| 2026-05-04 07:33 | 49.65802 | 5.51085 | 37152 ft | 446 kts | 248° |
| 2026-05-04 07:33 | 49.64738 | 5.46548 | 36517 ft | 443 kts | 248° |
| 2026-05-04 07:34 | 49.63700 | 5.42131 | 35864 ft | 441 kts | 247° |
| 2026-05-04 07:34 | 49.62647 | 5.37669 | 35123 ft | 440 kts | 247° |
| 2026-05-04 07:34 | 49.61637 | 5.33194 | 34359 ft | 441 kts | 249° |
| 2026-05-04 07:34 | 49.60699 | 5.28728 | 33801 ft | 436 kts | 250° |
| 2026-05-04 07:35 | 49.59990 | 5.24240 | 33182 ft | 434 kts | 256° |
| 2026-05-04 07:35 | 49.59525 | 5.19662 | 32655 ft | 429 kts | 258° |
| 2026-05-04 07:35 | 49.59222 | 5.15090 | 32126 ft | 426 kts | 262° |
| 2026-05-04 07:35 | 49.59167 | 5.10543 | 31631 ft | 423 kts | 266° |
| 2026-05-04 07:36 | 49.59215 | 5.06034 | 31132 ft | 419 kts | 266° |
| 2026-05-04 07:36 | 49.59276 | 5.01554 | 30638 ft | 415 kts | 266° |
| 2026-05-04 07:38 | 49.59511 | 4.71473 | 27278 ft | 395 kts | 265° |
| 2026-05-04 07:38 | 49.59528 | 4.67125 | 26856 ft | 405 kts | 265° |
| 2026-05-04 07:38 | 49.59545 | 4.62819 | 26428 ft | 408 kts | 265° |
| 2026-05-04 07:38 | 49.59564 | 4.58467 | 26002 ft | 406 kts | 265° |
| 2026-05-04 07:39 | 49.59583 | 4.54107 | 25568 ft | 405 kts | 265° |
| 2026-05-04 07:39 | 49.59600 | 4.49759 | 25155 ft | 404 kts | 265° |
| 2026-05-04 07:39 | 49.59614 | 4.45424 | 24729 ft | 402 kts | 266° |
| 2026-05-04 07:39 | 49.59627 | 4.41124 | 24323 ft | 401 kts | 266° |
| 2026-05-04 07:40 | 49.59637 | 4.36817 | 23896 ft | 400 kts | 266° |
| 2026-05-04 07:40 | 49.59646 | 4.32590 | 23471 ft | 400 kts | 266° |
| 2026-05-04 07:40 | 49.59652 | 4.28298 | 23005 ft | 399 kts | 266° |
| 2026-05-04 07:40 | 49.59660 | 4.24044 | 22528 ft | 395 kts | 266° |
| 2026-05-04 07:41 | 49.59665 | 4.19834 | 22128 ft | 389 kts | 266° |
| 2026-05-04 07:41 | 49.59667 | 4.17073 | 21856 ft | 386 kts | 266° |
| 2026-05-04 07:41 | 49.59669 | 4.12953 | 21444 ft | 382 kts | 266° |
| 2026-05-04 07:41 | 49.59630 | 4.08892 | 21033 ft | 373 kts | 260° |
| 2026-05-04 07:42 | 49.58979 | 4.05066 | 20664 ft | 368 kts | 242° |
| 2026-05-04 07:42 | 49.57668 | 4.01681 | 20288 ft | 369 kts | 234° |
| 2026-05-04 07:42 | 49.56234 | 3.98369 | 19910 ft | 373 kts | 234° |
| 2026-05-04 07:42 | 49.54790 | 3.95036 | 19547 ft | 373 kts | 234° |
| 2026-05-04 07:43 | 49.53359 | 3.91700 | 19115 ft | 372 kts | 234° |
| 2026-05-04 07:43 | 49.51969 | 3.88432 | 18742 ft | 368 kts | 234° |
| 2026-05-04 07:43 | 49.50581 | 3.85150 | 18373 ft | 365 kts | 235° |
| 2026-05-04 07:43 | 49.49195 | 3.81873 | 17954 ft | 363 kts | 235° |
| 2026-05-04 07:44 | 49.47828 | 3.78613 | 17529 ft | 361 kts | 238° |
| 2026-05-04 07:44 | 49.46886 | 3.75073 | 17104 ft | 355 kts | 255° |
| 2026-05-04 07:44 | 49.46351 | 3.71374 | 16773 ft | 356 kts | 255° |
| 2026-05-04 07:44 | 49.45760 | 3.67643 | 16420 ft | 361 kts | 254° |
| 2026-05-04 07:45 | 49.45141 | 3.63939 | 16032 ft | 364 kts | 254° |
| 2026-05-04 07:45 | 49.44504 | 3.60181 | 15785 ft | 359 kts | 254° |
| 2026-05-04 07:45 | 49.43880 | 3.56512 | 15583 ft | 353 kts | 254° |
| 2026-05-04 07:45 | 49.43259 | 3.52863 | 15386 ft | 351 kts | 254° |
| 2026-05-04 07:46 | 49.42640 | 3.49234 | 15200 ft | 351 kts | 254° |
| 2026-05-04 07:46 | 49.42015 | 3.45597 | 14991 ft | 351 kts | 253° |
| 2026-05-04 07:46 | 49.41198 | 3.42124 | 14699 ft | 352 kts | 246° |
| 2026-05-04 07:46 | 49.40139 | 3.38711 | 14407 ft | 354 kts | 243° |
| 2026-05-04 07:47 | 49.39012 | 3.35333 | 14104 ft | 355 kts | 243° |
| 2026-05-04 07:47 | 49.37882 | 3.31977 | 13802 ft | 352 kts | 243° |
| 2026-05-04 07:47 | 49.36775 | 3.28649 | 13457 ft | 347 kts | 243° |
| 2026-05-04 07:49 | 49.29750 | 3.05927 | 11419 ft | 337 kts | 254° |
| 2026-05-04 07:49 | 49.29189 | 3.02465 | 11143 ft | 332 kts | 256° |
| 2026-05-04 07:49 | 49.28687 | 2.99043 | 10850 ft | 326 kts | 257° |
| 2026-05-04 07:50 | 49.28404 | 2.97080 | 10686 ft | 323 kts | 257° |
| 2026-05-04 07:50 | 49.28367 | 2.96826 | 10667 ft | 323 kts | 257° |
| 2026-05-04 07:51 | 49.27891 | 2.93493 | 10393 ft | 317 kts | 257° |
| 2026-05-04 07:51 | 49.27427 | 2.90215 | 10129 ft | 312 kts | 257° |
| 2026-05-04 07:51 | 49.26972 | 2.86983 | 9884 ft | 307 kts | 257° |
| 2026-05-04 07:51 | 49.26573 | 2.83875 | 9799 ft | 296 kts | 259° |
| 2026-05-04 07:52 | 49.26288 | 2.81057 | 9533 ft | 293 kts | 261° |
| 2026-05-04 07:52 | 49.25985 | 2.77926 | 9250 ft | 289 kts | 261° |
| 2026-05-04 07:52 | 49.25695 | 2.74895 | 8952 ft | 285 kts | 261° |
| 2026-05-04 07:52 | 49.25408 | 2.71894 | 8708 ft | 281 kts | 261° |
| 2026-05-04 07:53 | 49.25130 | 2.68996 | 8498 ft | 275 kts | 261° |
| 2026-05-04 07:54 | 49.23223 | 2.49379 | 7193 ft | 262 kts | 261° |
| 2026-05-04 07:55 | 49.22957 | 2.46653 | 7037 ft | 262 kts | 261° |
| 2026-05-04 07:55 | 49.22687 | 2.43901 | 6871 ft | 260 kts | 261° |
| 2026-05-04 07:55 | 49.22419 | 2.41167 | 6733 ft | 258 kts | 261° |
| 2026-05-04 07:55 | 49.22153 | 2.38462 | 6615 ft | 257 kts | 261° |
| 2026-05-04 07:56 | 49.21886 | 2.35748 | 6510 ft | 260 kts | 261° |
| 2026-05-04 07:56 | 49.21614 | 2.32991 | 6332 ft | 261 kts | 261° |
| 2026-05-04 07:56 | 49.21346 | 2.30260 | 6076 ft | 257 kts | 261° |
| 2026-05-04 07:56 | 49.21083 | 2.27602 | 6006 ft | 247 kts | 261° |
| 2026-05-04 07:57 | 49.20804 | 2.25059 | 5957 ft | 241 kts | 252° |
| 2026-05-04 07:57 | 49.19899 | 2.22939 | 5750 ft | 242 kts | 215° |
| 2026-05-04 07:57 | 49.18342 | 2.22053 | 5530 ft | 240 kts | 188° |
| 2026-05-04 07:57 | 49.16680 | 2.21708 | 5295 ft | 243 kts | 188° |
| 2026-05-04 07:58 | 49.15014 | 2.21336 | 5043 ft | 245 kts | 189° |
| 2026-05-04 07:58 | 49.13323 | 2.20934 | 4797 ft | 245 kts | 189° |
| 2026-05-04 07:58 | 49.11647 | 2.20516 | 4538 ft | 243 kts | 189° |
| 2026-05-04 07:58 | 49.10004 | 2.20089 | 4284 ft | 241 kts | 190° |
| 2026-05-04 07:59 | 49.08366 | 2.19652 | 4090 ft | 235 kts | 190° |
| 2026-05-04 07:59 | 49.06786 | 2.19227 | 4011 ft | 223 kts | 190° |
| 2026-05-04 07:59 | 49.05330 | 2.18833 | 3979 ft | 207 kts | 190° |
| 2026-05-04 07:59 | 49.03942 | 2.18457 | 3985 ft | 199 kts | 190° |
| 2026-05-04 08:00 | 49.02591 | 2.18296 | 3984 ft | 189 kts | 167° |
| 2026-05-04 08:00 | 49.01522 | 2.19238 | 3999 ft | 175 kts | 133° |
| 2026-05-04 08:00 | 49.00981 | 2.20880 | 3998 ft | 180 kts | 95° |
| 2026-05-04 08:02 | 49.01472 | 2.33518 | 2893 ft | 155 kts | 86° |
| 2026-05-04 08:02 | 49.01558 | 2.35153 | 2677 ft | 154 kts | 86° |
| 2026-05-04 08:02 | 49.01644 | 2.36777 | 2466 ft | 153 kts | 86° |
| 2026-05-04 08:03 | 49.01728 | 2.38369 | 2255 ft | 152 kts | 86° |
| 2026-05-04 08:03 | 49.01814 | 2.39982 | 2052 ft | 153 kts | 86° |
| 2026-05-04 08:03 | 49.01847 | 2.40611 | 1972 ft | 152 kts | 86° |
| 2026-05-04 08:04 | 49.01880 | 2.41222 | 1897 ft | 153 kts | 86° |
| 2026-05-04 08:04 | 49.01963 | 2.42809 | 1683 ft | 151 kts | 86° |
| 2026-05-04 08:04 | 49.02048 | 2.44409 | 1478 ft | 151 kts | 86° |
| 2026-05-04 08:04 | 49.02133 | 2.46016 | 1285 ft | 150 kts | 86° |
| 2026-05-04 08:05 | 49.02213 | 2.47577 | 1065 ft | 150 kts | 85° |
| 2026-05-04 08:05 | 49.02293 | 2.49150 | 881 ft | 148 kts | 84° |
| 2026-05-04 08:05 | 49.02383 | 2.50731 | 643 ft | 149 kts | 84° |
| 2026-05-04 08:05 | 49.02461 | 2.52274 | 425 ft | 143 kts | 84° |
| 2026-05-04 08:06 | 49.02521 | 2.53717 | 370 ft | 125 kts | 83° |
| 2026-05-04 08:06 | 49.02599 | 2.54809 | 359 ft | 77 kts | 86° |
| 2026-05-04 08:06 | 49.02579 | 2.55267 | 368 ft | 27 kts | 113° |
| 2026-05-04 08:06 | 49.02505 | 2.55500 | 366 ft | 21 kts | 116° |
| 2026-05-04 08:08 | 49.02269 | 2.55632 | 363 ft | 18 kts | 175° |
| 2026-05-04 08:08 | 49.02131 | 2.55643 | 367 ft | 22 kts | 187° |
| 2026-05-04 08:10 | 49.01838 | 2.54139 | 362 ft | 4 kts | 158° |
| 2026-05-04 08:11 | 49.01816 | 2.54217 | 367 ft | 14 kts | 102° |
| 2026-05-04 08:11 | 49.01643 | 2.54657 | 367 ft | 25 kts | 146° |
| 2026-05-04 08:11 | 49.01493 | 2.54743 | 365 ft | 25 kts | 172° |
| 2026-05-04 08:12 | 49.01392 | 2.54740 | 363 ft | 18 kts | 186° |
| 2026-05-04 08:12 | 49.01244 | 2.54659 | 366 ft | 27 kts | 223° |
| 2026-05-04 08:12 | 49.01210 | 2.54502 | 363 ft | 7 kts | 270° |
| 2026-05-04 08:12 | 49.01200 | 2.54364 | 362 ft | 20 kts | 263° |
| 2026-05-04 08:13 | 49.01187 | 2.54135 | 355 ft | 15 kts | 272° |
| 2026-05-04 08:13 | 49.01239 | 2.54069 | 362 ft | 13 kts | 333° |
| 2026-05-04 08:13 | 49.01280 | 2.54015 | 365 ft | 0 kts | 317° |
| 2026-05-04 08:16 | 49.02098 | 2.45358 | 1357 ft | 133 kts | 86° |
| 2026-05-04 08:16 | 49.02175 | 2.46804 | 1173 ft | 149 kts | 86° |
| 2026-05-04 08:17 | 49.02255 | 2.48389 | 957 ft | 149 kts | 85° |
| 2026-05-04 08:17 | 49.02337 | 2.49943 | 753 ft | 150 kts | 84° |
| 2026-05-04 08:17 | 49.02424 | 2.51515 | 550 ft | 146 kts | 84° |
| 2026-05-04 08:17 | 49.02494 | 2.53024 | 377 ft | 138 kts | 85° |